createdAt,value
2018-09-27T00:02:14.240Z,3.57
2018-09-27T00:04:41.992Z,3.23
2018-09-27T00:07:09.775Z,3.30
2018-09-27T00:09:37.511Z,3.10
2018-09-27T00:12:05.324Z,3.20
2018-09-27T00:14:33.008Z,3.30
2018-09-27T00:17:00.662Z,3.13
2018-09-27T00:19:28.347Z,3.27
2018-09-27T00:21:56.051Z,3.30
2018-09-27T00:24:23.729Z,3.03
2018-09-27T00:26:51.412Z,3.60
2018-09-27T00:29:19.093Z,3.27
2018-09-27T00:31:46.827Z,3.90
2018-09-27T00:34:14.524Z,2.80
2018-09-27T00:36:42.234Z,2.73
2018-09-27T00:39:11.436Z,3.30
2018-09-27T00:41:39.209Z,3.17
2018-09-27T00:44:06.943Z,2.90
2018-09-27T00:46:34.738Z,3.40
2018-09-27T00:49:02.508Z,3.20
2018-09-27T00:51:30.196Z,3.23
2018-09-27T00:53:57.898Z,3.60
2018-09-27T00:56:25.722Z,3.20
2018-09-27T00:58:54.525Z,3.67
2018-09-27T01:01:22.397Z,3.33
2018-09-27T01:03:50.103Z,3.60
2018-09-27T01:06:17.853Z,3.47
2018-09-27T01:08:45.677Z,3.47
2018-09-27T01:11:13.444Z,3.67
2018-09-27T01:13:41.178Z,3.20
2018-09-27T01:16:08.855Z,3.73
2018-09-27T01:18:36.581Z,3.30
2018-09-27T01:21:04.343Z,3.80
2018-09-27T01:23:32.089Z,2.87
2018-09-27T01:26:00.055Z,3.57
2018-09-27T01:28:27.737Z,3.03
2018-09-27T01:30:55.416Z,3.37
2018-09-27T01:33:23.127Z,3.30
2018-09-27T01:35:50.831Z,3.30
2018-09-27T01:38:18.574Z,3.20
2018-09-27T01:40:46.342Z,3.23
2018-09-27T01:43:14.036Z,3.60
2018-09-27T01:45:41.804Z,3.57
2018-09-27T01:48:09.609Z,3.80
2018-09-27T01:50:37.555Z,3.13
2018-09-27T01:53:05.548Z,3.03
2018-09-27T01:55:33.283Z,3.10
2018-09-27T01:58:00.956Z,3.03
2018-09-27T02:00:28.664Z,3.80
2018-09-27T02:02:58.559Z,3.07
2018-09-27T02:05:26.383Z,2.90
2018-09-27T02:07:54.144Z,3.20
2018-09-27T02:10:21.836Z,3.83
2018-09-27T02:12:49.547Z,3.13
2018-09-27T02:15:17.244Z,3.13
2018-09-27T02:17:44.911Z,2.90
2018-09-27T02:20:12.572Z,3.20
2018-09-27T02:22:40.346Z,3.50
2018-09-27T02:25:08.071Z,3.43
2018-09-27T02:27:35.753Z,3.17
2018-09-27T02:30:03.476Z,3.37
2018-09-27T02:32:31.141Z,3.40
2018-09-27T02:34:58.812Z,3.40
2018-09-27T02:37:26.482Z,3.57
2018-09-27T02:39:54.185Z,3.60
2018-09-27T02:42:21.830Z,3.73
2018-09-27T02:44:49.500Z,3.83
2018-09-27T02:47:17.106Z,3.77
2018-09-27T02:49:44.752Z,3.50
2018-09-27T02:52:12.453Z,3.63
2018-09-27T02:54:40.160Z,3.70
2018-09-27T02:57:07.824Z,3.77
2018-09-27T02:59:35.475Z,3.80
2018-09-27T03:02:03.163Z,3.83
2018-09-27T03:04:30.843Z,3.90
2018-09-27T03:06:58.779Z,3.87
2018-09-27T03:09:26.465Z,3.83
2018-09-27T03:11:54.145Z,3.90
2018-09-27T03:14:21.828Z,4.00
2018-09-27T03:16:49.516Z,4.00
2018-09-27T03:19:17.272Z,4.30
2018-09-27T03:21:44.951Z,3.87
2018-09-27T03:24:12.623Z,3.27
2018-09-27T03:26:40.256Z,3.40
2018-09-27T03:29:08.018Z,4.10
2018-09-27T03:31:35.696Z,3.63
2018-09-27T03:34:03.477Z,3.37
2018-09-27T03:36:31.109Z,3.20
2018-09-27T03:38:58.909Z,3.60
2018-09-27T03:41:26.670Z,3.43
2018-09-27T03:43:54.368Z,3.47
2018-09-27T03:46:22.112Z,3.87
2018-09-27T03:48:49.868Z,3.30
2018-09-27T03:51:17.595Z,3.40
2018-09-27T03:53:45.257Z,3.20
2018-09-27T03:56:13.012Z,3.73
2018-09-27T03:58:40.697Z,3.90
2018-09-27T04:01:08.367Z,3.00
2018-09-27T04:03:36.023Z,3.53
2018-09-27T04:06:03.769Z,3.57
2018-09-27T04:08:31.418Z,2.73
2018-09-27T04:11:01.273Z,2.97
2018-09-27T04:13:28.971Z,3.13
2018-09-27T04:15:56.680Z,3.30
2018-09-27T04:18:24.362Z,2.97
2018-09-27T04:20:52.664Z,3.30
2018-09-27T04:23:23.426Z,3.60
2018-09-27T04:25:51.808Z,2.97
2018-09-27T04:28:20.277Z,3.20
2018-09-27T04:30:47.928Z,4.17
2018-09-27T04:33:15.622Z,3.27
2018-09-27T04:35:43.206Z,3.37
2018-09-27T04:38:10.935Z,3.43
2018-09-27T04:40:38.596Z,3.50
2018-09-27T04:43:06.320Z,3.53
2018-09-27T04:45:34.033Z,3.50
2018-09-27T04:48:01.661Z,3.20
2018-09-27T04:50:29.336Z,3.30
2018-09-27T04:52:57.064Z,3.40
2018-09-27T04:55:24.755Z,3.43
2018-09-27T04:57:52.387Z,3.43
2018-09-27T05:00:20.056Z,3.20
2018-09-27T05:02:47.873Z,3.33
2018-09-27T05:05:15.601Z,3.47
2018-09-27T05:07:43.396Z,3.80
2018-09-27T05:10:11.079Z,3.40
2018-09-27T05:12:38.723Z,3.00
2018-09-27T05:15:06.415Z,3.57
2018-09-27T05:17:34.086Z,3.70
2018-09-27T05:20:01.737Z,3.70
2018-09-27T05:22:29.409Z,3.40
2018-09-27T05:24:57.081Z,3.13
2018-09-27T05:27:24.775Z,3.10
2018-09-27T05:29:52.422Z,3.77
2018-09-27T05:32:20.120Z,3.10
2018-09-27T05:34:47.789Z,3.57
2018-09-27T05:37:15.548Z,4.03
2018-09-27T05:39:43.344Z,3.50
2018-09-27T05:42:10.823Z,3.53
2018-09-27T05:44:38.481Z,3.53
2018-09-27T05:47:06.121Z,3.60
2018-09-27T05:49:33.795Z,3.80
2018-09-27T05:52:01.529Z,3.73
2018-09-27T05:54:29.339Z,3.33
2018-09-27T05:56:57.325Z,4.20
2018-09-27T05:59:25.066Z,3.33
2018-09-27T06:01:52.812Z,3.40
2018-09-27T06:04:20.442Z,3.30
2018-09-27T06:06:48.151Z,3.20
2018-09-27T06:09:15.775Z,3.07
2018-09-27T06:11:43.410Z,3.77
2018-09-27T06:14:11.072Z,3.60
2018-09-27T06:16:38.969Z,3.30
2018-09-27T06:19:09.167Z,3.17
2018-09-27T06:21:37.109Z,3.57
2018-09-27T06:24:04.847Z,3.00
2018-09-27T06:26:32.683Z,3.50
2018-09-27T06:29:00.623Z,4.10
2018-09-27T06:31:28.254Z,3.50
2018-09-27T06:33:55.973Z,3.73
2018-09-27T06:36:23.684Z,3.23
2018-09-27T06:38:51.375Z,3.77
2018-09-27T06:41:21.141Z,3.57
2018-09-27T06:43:48.845Z,3.23
2018-09-27T06:46:16.562Z,3.70
2018-09-27T06:48:44.284Z,3.30
2018-09-27T06:51:11.960Z,3.57
2018-09-27T06:53:39.668Z,3.10
2018-09-27T06:56:07.493Z,3.60
2018-09-27T06:58:35.248Z,3.13
2018-09-27T07:01:03.026Z,3.80
2018-09-27T07:03:30.673Z,3.17
2018-09-27T07:05:58.415Z,3.40
2018-09-27T07:08:26.174Z,3.93
2018-09-27T07:10:53.880Z,3.23
2018-09-27T07:13:21.522Z,3.90
2018-09-27T07:15:49.260Z,3.80
2018-09-27T07:18:16.981Z,3.97
2018-09-27T07:20:44.669Z,3.57
2018-09-27T07:23:12.444Z,3.47
2018-09-27T07:25:40.331Z,3.20
2018-09-27T07:28:08.160Z,3.83
2018-09-27T07:30:35.797Z,3.03
2018-09-27T07:33:03.517Z,3.10
2018-09-27T07:35:31.272Z,3.10
2018-09-27T07:37:58.997Z,3.30
2018-09-27T07:40:26.673Z,3.80
2018-09-27T07:42:54.377Z,3.40
2018-09-27T07:45:21.972Z,3.23
2018-09-27T07:47:49.664Z,3.27
2018-09-27T07:50:17.381Z,3.50
2018-09-27T07:52:45.157Z,3.20
2018-09-27T07:55:12.888Z,3.73
2018-09-27T07:57:40.594Z,3.20
2018-09-27T08:00:08.320Z,3.40
2018-09-27T08:02:35.950Z,3.30
2018-09-27T08:05:03.680Z,3.43
2018-09-27T08:07:31.348Z,3.17
2018-09-27T08:10:00.202Z,3.87
2018-09-27T08:12:27.920Z,3.20
2018-09-27T08:14:55.829Z,3.87
2018-09-27T08:17:23.561Z,3.57
2018-09-27T08:19:51.329Z,3.30
2018-09-27T08:22:20.372Z,3.40
2018-09-27T08:24:49.481Z,4.00
2018-09-27T08:27:17.141Z,3.80
2018-09-27T08:29:47.227Z,3.60
2018-09-27T08:32:15.184Z,3.50
2018-09-27T08:34:42.860Z,3.67
2018-09-27T08:37:10.578Z,3.40
2018-09-27T08:39:38.249Z,3.20
2018-09-27T08:42:05.919Z,3.67
2018-09-27T08:44:33.667Z,3.43
2018-09-27T08:47:01.320Z,3.93
2018-09-27T08:49:29.264Z,3.87
2018-09-27T08:51:57.028Z,3.80
2018-09-27T08:54:26.098Z,3.60
2018-09-27T08:56:53.828Z,4.20
2018-09-27T08:59:21.522Z,3.83
2018-09-27T09:01:50.637Z,3.47
2018-09-27T09:04:18.406Z,3.97
2018-09-27T09:06:46.075Z,3.90
2018-09-27T09:09:13.728Z,4.20
2018-09-27T09:11:43.133Z,4.10
2018-09-27T09:14:11.533Z,4.40
2018-09-27T09:16:39.200Z,3.93
2018-09-27T09:19:06.860Z,4.00
2018-09-27T09:21:34.877Z,4.40
2018-09-27T09:24:02.437Z,4.20
2018-09-27T09:26:30.126Z,4.00
2018-09-27T09:28:57.839Z,4.50
2018-09-27T09:31:25.566Z,5.00
2018-09-27T09:33:53.223Z,4.17
2018-09-27T09:36:20.968Z,4.80
2018-09-27T09:38:48.619Z,4.57
2018-09-27T09:41:16.444Z,4.40
2018-09-27T09:43:44.183Z,5.00
2018-09-27T09:46:11.893Z,5.17
2018-09-27T09:48:39.632Z,5.30
2018-09-27T09:51:07.293Z,5.20
2018-09-27T09:53:35.016Z,5.20
2018-09-27T09:56:02.953Z,5.47
2018-09-27T09:58:30.713Z,5.57
2018-09-27T10:00:58.353Z,5.50
2018-09-27T10:03:25.976Z,5.17
2018-09-27T10:05:53.548Z,5.90
2018-09-27T10:08:21.202Z,5.83
2018-09-27T10:10:48.866Z,5.63
2018-09-27T10:13:16.525Z,5.30
2018-09-27T10:15:46.452Z,5.87
2018-09-27T10:18:14.337Z,5.67
2018-09-27T10:20:42.058Z,5.27
2018-09-27T10:23:09.945Z,7.37
2018-09-27T10:25:37.636Z,7.77
2018-09-27T10:28:05.309Z,7.67
2018-09-27T10:30:32.977Z,8.60
2018-09-27T10:33:00.662Z,7.83
2018-09-27T10:35:28.325Z,7.45
2018-09-27T10:37:56.753Z,7.57
2018-09-27T10:40:24.326Z,7.63
2018-09-27T10:42:51.972Z,7.03
2018-09-27T10:45:19.540Z,7.42
2018-09-27T10:47:47.111Z,8.35
2018-09-27T10:50:14.755Z,8.13
2018-09-27T10:52:42.516Z,8.48
2018-09-27T10:55:10.102Z,8.55
2018-09-27T10:57:37.790Z,7.75
2018-09-27T11:00:05.541Z,7.65
2018-09-27T11:02:33.113Z,8.30
2018-09-27T11:05:00.709Z,8.33
2018-09-27T11:07:29.375Z,8.28
2018-09-27T11:09:57.292Z,8.33
2018-09-27T11:12:25.120Z,8.38
2018-09-27T11:14:52.703Z,8.00
2018-09-27T11:17:20.233Z,8.13
2018-09-27T11:19:48.111Z,8.88
2018-09-27T11:22:15.679Z,8.58
2018-09-27T11:24:43.951Z,7.47
2018-09-27T11:27:11.775Z,7.60
2018-09-27T11:29:45.049Z,7.08
2018-09-27T11:32:18.581Z,7.20
2018-09-27T11:34:46.158Z,7.00
2018-09-27T11:37:13.714Z,6.90
2018-09-27T11:39:41.501Z,7.08
2018-09-27T11:42:10.148Z,7.05
2018-09-27T11:44:38.063Z,8.03
2018-09-27T11:47:06.154Z,7.58
2018-09-27T11:49:33.955Z,7.55
2018-09-27T11:52:01.675Z,7.58
2018-09-27T11:54:29.609Z,7.67
2018-09-27T11:56:57.415Z,7.10
2018-09-27T11:59:25.294Z,7.40
2018-09-27T12:01:53.021Z,6.90
2018-09-27T12:04:20.987Z,7.42
2018-09-27T12:06:49.854Z,7.47
2018-09-27T12:09:17.576Z,7.62
2018-09-27T12:11:45.247Z,6.72
2018-09-27T12:14:13.553Z,6.97
2018-09-27T12:16:41.545Z,6.33
2018-09-27T12:19:09.200Z,6.70
2018-09-27T12:21:36.893Z,6.05
2018-09-27T12:24:04.583Z,5.25
2018-09-27T12:26:32.282Z,5.05
2018-09-27T12:28:59.955Z,4.83
2018-09-27T12:31:27.677Z,5.10
2018-09-27T12:33:55.369Z,4.45
2018-09-27T12:36:23.089Z,4.03
2018-09-27T12:38:50.630Z,5.00
2018-09-27T12:41:18.304Z,4.22
2018-09-27T12:43:45.953Z,5.37
2018-09-27T12:46:13.637Z,5.85
2018-09-27T12:48:41.442Z,5.35
2018-09-27T12:51:09.199Z,5.28
2018-09-27T12:53:36.764Z,5.05
2018-09-27T12:56:04.458Z,5.35
2018-09-27T12:58:32.163Z,5.58
2018-09-27T13:00:59.805Z,5.15
2018-09-27T13:03:27.471Z,5.00
2018-09-27T13:05:55.138Z,4.72
2018-09-27T13:08:22.820Z,5.62
2018-09-27T13:10:52.550Z,4.62
2018-09-27T13:13:20.332Z,4.40
2018-09-27T13:15:47.953Z,4.83
2018-09-27T13:18:15.669Z,5.42
2018-09-27T13:20:43.399Z,5.33
2018-09-27T13:23:11.100Z,3.80
2018-09-27T13:25:38.769Z,4.17
2018-09-27T13:28:06.432Z,3.50
2018-09-27T13:30:34.080Z,3.83
2018-09-27T13:33:03.712Z,4.00
2018-09-27T13:35:31.459Z,4.20
2018-09-27T13:37:59.091Z,3.80
2018-09-27T13:40:26.756Z,4.05
2018-09-27T13:42:54.427Z,3.50
2018-09-27T13:45:22.148Z,3.70
2018-09-27T13:47:49.807Z,3.42
2018-09-27T13:50:17.484Z,3.70
2018-09-27T13:52:45.184Z,3.47
2018-09-27T13:55:12.861Z,3.47
2018-09-27T13:57:40.542Z,3.50
2018-09-27T14:00:08.750Z,4.17
2018-09-27T14:02:36.439Z,4.20
2018-09-27T14:05:04.145Z,3.40
2018-09-27T14:07:31.793Z,3.47
2018-09-27T14:09:59.473Z,3.85
2018-09-27T14:12:27.141Z,4.70
2018-09-27T14:14:57.432Z,6.78
2018-09-27T14:17:25.162Z,6.87
2018-09-27T14:19:52.856Z,6.10
2018-09-27T14:22:20.524Z,5.75
2018-09-27T14:24:48.238Z,4.87
2018-09-27T14:27:15.915Z,5.33
2018-09-27T14:29:43.589Z,5.17
2018-09-27T14:32:11.339Z,6.05
2018-09-27T14:34:38.936Z,5.30
2018-09-27T14:37:06.659Z,5.22
2018-09-27T14:39:34.238Z,5.50
2018-09-27T14:42:01.912Z,4.17
2018-09-27T14:44:29.487Z,5.00
2018-09-27T14:46:57.150Z,5.12
2018-09-27T14:49:24.927Z,5.33
2018-09-27T14:51:52.597Z,4.72
2018-09-27T14:54:20.324Z,4.22
2018-09-27T14:56:48.288Z,4.10
2018-09-27T14:59:15.932Z,4.78
2018-09-27T15:01:43.597Z,4.83
2018-09-27T15:04:11.239Z,5.03
2018-09-27T15:06:39.048Z,4.70
2018-09-27T15:09:08.087Z,5.58
2018-09-27T15:11:35.789Z,5.62
2018-09-27T15:14:03.549Z,4.70
2018-09-27T15:16:31.273Z,4.87
2018-09-27T15:19:00.946Z,5.10
2018-09-27T15:21:29.106Z,5.12
2018-09-27T15:23:56.719Z,5.28
2018-09-27T15:26:24.404Z,4.78
2018-09-27T15:28:52.078Z,5.62
2018-09-27T15:31:19.752Z,5.35
2018-09-27T15:33:47.436Z,5.03
2018-09-27T15:36:15.060Z,4.90
2018-09-27T15:38:42.765Z,5.40
2018-09-27T15:41:12.120Z,4.55
2018-09-27T15:43:39.793Z,5.20
2018-09-27T15:46:07.434Z,5.47
2018-09-27T15:48:35.090Z,5.87
2018-09-27T15:51:02.738Z,5.30
2018-09-27T15:53:30.384Z,5.42
2018-09-27T15:55:58.053Z,5.10
2018-09-27T15:58:25.839Z,5.70
2018-09-27T16:00:53.687Z,5.92
2018-09-27T16:03:23.010Z,4.97
2018-09-27T16:05:50.737Z,5.65
2018-09-27T16:08:18.404Z,6.42
2018-09-27T16:10:46.048Z,6.37
2018-09-27T16:13:13.728Z,6.30
2018-09-27T16:15:41.411Z,5.70
2018-09-27T16:18:09.955Z,6.30
2018-09-27T16:20:38.089Z,5.72
2018-09-27T16:23:05.997Z,5.47
2018-09-27T16:25:35.017Z,6.12
2018-09-27T16:28:02.748Z,5.92
2018-09-27T16:30:30.493Z,6.15
2018-09-27T16:32:58.131Z,6.25
2018-09-27T16:35:25.762Z,6.12
2018-09-27T16:37:53.447Z,6.28
2018-09-27T16:40:21.143Z,5.40
2018-09-27T16:42:48.924Z,5.65
2018-09-27T16:45:16.461Z,5.20
2018-09-27T16:47:46.555Z,5.50
2018-09-27T16:50:14.277Z,4.72
2018-09-27T16:52:42.012Z,4.83
2018-09-27T16:55:09.782Z,4.55
2018-09-27T16:57:37.417Z,5.42
2018-09-27T17:00:05.665Z,4.62
2018-09-27T17:02:33.333Z,4.45
2018-09-27T17:05:00.991Z,4.30
2018-09-27T17:07:28.635Z,4.70
2018-09-27T17:09:58.197Z,4.78
2018-09-27T17:12:25.890Z,4.67
2018-09-27T17:14:53.611Z,4.53
2018-09-27T17:17:21.340Z,5.05
2018-09-27T17:19:49.209Z,5.33
2018-09-27T17:22:17.079Z,5.53
2018-09-27T17:24:44.760Z,5.30
2018-09-27T17:27:12.380Z,4.42
2018-09-27T17:29:40.109Z,4.40
2018-09-27T17:32:08.422Z,4.83
2018-09-27T17:34:36.125Z,5.17
2018-09-27T17:37:03.802Z,4.80
2018-09-27T17:39:31.477Z,4.87
2018-09-27T17:41:59.125Z,5.05
2018-09-27T17:44:26.771Z,4.70
2018-09-27T17:46:54.435Z,4.62
2018-09-27T17:49:22.015Z,4.08
2018-09-27T17:51:49.709Z,4.80
2018-09-27T17:54:17.368Z,4.10
2018-09-27T17:56:45.013Z,4.47
2018-09-27T17:59:12.709Z,5.12
2018-09-27T18:01:40.344Z,3.90
2018-09-27T18:04:07.983Z,4.47
2018-09-27T18:06:35.637Z,3.90
2018-09-27T18:09:04.969Z,4.43
2018-09-27T18:11:32.709Z,4.23
2018-09-27T18:14:00.352Z,3.80
2018-09-27T18:16:28.102Z,3.70
2018-09-27T18:18:55.744Z,3.67
2018-09-27T18:21:23.423Z,4.20
2018-09-27T18:23:51.073Z,4.77
2018-09-27T18:26:18.705Z,3.83
2018-09-27T18:28:46.382Z,4.10
2018-09-27T18:31:14.073Z,3.60
2018-09-27T18:33:41.691Z,3.73
2018-09-27T18:36:09.345Z,3.90
2018-09-27T18:38:37.175Z,4.17
2018-09-27T18:41:04.950Z,4.47
2018-09-27T18:43:32.718Z,4.00
2018-09-27T18:46:00.721Z,4.20
2018-09-27T18:48:28.527Z,4.37
2018-09-27T18:50:56.450Z,4.20
2018-09-27T18:53:24.180Z,4.60
2018-09-27T18:55:52.066Z,4.47
2018-09-27T18:58:19.716Z,4.53
2018-09-27T19:00:47.379Z,4.53
2018-09-27T19:03:15.095Z,4.00
2018-09-27T19:05:42.700Z,4.17
2018-09-27T19:08:10.395Z,4.53
2018-09-27T19:10:39.097Z,4.90
2018-09-27T19:13:08.000Z,4.20
2018-09-27T19:15:36.772Z,4.20
2018-09-27T19:18:05.825Z,4.27
2018-09-27T19:20:33.597Z,4.17
2018-09-27T19:23:01.235Z,4.40
2018-09-27T19:25:28.922Z,4.20
2018-09-27T19:27:56.629Z,4.53
2018-09-27T19:30:24.354Z,4.20
2018-09-27T19:32:52.161Z,4.30
2018-09-27T19:35:19.817Z,4.57
2018-09-27T19:37:47.479Z,5.47
2018-09-27T19:40:15.146Z,16.23
2018-09-27T19:42:42.830Z,15.23
2018-09-27T19:45:10.562Z,10.07
2018-09-27T19:47:38.232Z,6.27
2018-09-27T19:50:06.028Z,5.40
2018-09-27T19:52:33.829Z,4.90
2018-09-27T19:55:01.540Z,4.30
2018-09-27T19:57:29.265Z,4.10
2018-09-27T19:59:57.134Z,4.30
2018-09-27T20:02:25.101Z,4.57
2018-09-27T20:04:52.846Z,3.53
2018-09-27T20:07:20.580Z,3.77
2018-09-27T20:09:48.394Z,4.17
2018-09-27T20:12:16.054Z,4.20
2018-09-27T20:14:43.709Z,4.43
2018-09-27T20:17:11.244Z,4.70
2018-09-27T20:19:38.887Z,4.77
2018-09-27T20:22:11.018Z,4.67
2018-09-27T20:24:38.697Z,4.47
2018-09-27T20:27:06.496Z,4.37
2018-09-27T20:29:34.149Z,4.57
2018-09-27T20:32:03.056Z,5.23
2018-09-27T20:34:32.024Z,4.80
2018-09-27T20:36:59.948Z,5.10
2018-09-27T20:39:27.710Z,5.00
2018-09-27T20:41:55.576Z,4.77
2018-09-27T20:44:25.599Z,5.03
2018-09-27T20:46:53.413Z,4.97
2018-09-27T20:49:21.105Z,5.20
2018-09-27T20:51:49.002Z,5.53
2018-09-27T20:54:16.824Z,5.73
2018-09-27T20:56:44.797Z,5.27
2018-09-27T20:59:12.556Z,5.47
2018-09-27T21:01:40.245Z,5.67
2018-09-27T21:04:07.983Z,5.40
2018-09-27T21:06:35.660Z,5.80
2018-09-27T21:09:05.090Z,4.80
2018-09-27T21:11:32.724Z,5.33
2018-09-27T21:14:00.369Z,4.87
2018-09-27T21:16:28.058Z,4.77
2018-09-27T21:18:55.697Z,5.10
2018-09-27T21:21:23.335Z,5.37
2018-09-27T21:23:51.036Z,4.90
2018-09-27T21:26:21.024Z,4.43
2018-09-27T21:28:48.700Z,5.23
2018-09-27T21:31:16.380Z,5.03
2018-09-27T21:33:44.017Z,5.03
2018-09-27T21:36:11.695Z,5.40
2018-09-27T21:38:39.355Z,5.50
2018-09-27T21:41:07.015Z,5.30
2018-09-27T21:43:34.699Z,5.50
2018-09-27T21:46:02.365Z,5.67
2018-09-27T21:48:30.005Z,4.87
2018-09-27T21:50:57.705Z,5.60
2018-09-27T21:53:25.332Z,4.67
2018-09-27T21:55:52.961Z,5.63
2018-09-27T21:58:20.641Z,5.40
2018-09-27T22:00:50.985Z,5.40
2018-09-27T22:03:19.969Z,5.43
2018-09-27T22:05:47.608Z,4.80
2018-09-27T22:08:15.283Z,5.30
2018-09-27T22:10:42.944Z,5.23
2018-09-27T22:13:10.639Z,5.60
2018-09-27T22:15:38.297Z,5.67
2018-09-27T22:18:06.032Z,4.67
2018-09-27T22:20:33.680Z,6.10
2018-09-27T22:23:01.329Z,5.50
2018-09-27T22:25:28.975Z,5.47
2018-09-27T22:27:56.527Z,5.57
2018-09-27T22:30:24.176Z,5.30
2018-09-27T22:32:51.855Z,5.53
2018-09-27T22:35:19.616Z,5.57
2018-09-27T22:37:47.283Z,5.63
2018-09-27T22:40:14.976Z,6.40
2018-09-27T22:42:42.605Z,6.60
2018-09-27T22:45:10.250Z,6.67
2018-09-27T22:47:37.922Z,6.77
2018-09-27T22:50:05.609Z,6.23
2018-09-27T22:52:33.935Z,7.30
2018-09-27T22:55:01.616Z,6.73
2018-09-27T22:57:29.165Z,6.83
2018-09-27T22:59:56.876Z,7.53
2018-09-27T23:02:24.526Z,7.63
2018-09-27T23:04:52.183Z,7.13
2018-09-27T23:07:19.832Z,7.30
2018-09-27T23:09:47.477Z,8.33
2018-09-27T23:12:15.185Z,8.03
2018-09-27T23:14:42.819Z,9.00
2018-09-27T23:17:10.501Z,7.30
2018-09-27T23:19:38.188Z,8.13
2018-09-27T23:22:05.868Z,8.27
2018-09-27T23:24:33.533Z,7.90
2018-09-27T23:27:01.183Z,7.83
2018-09-27T23:29:28.820Z,8.13
2018-09-27T23:31:56.490Z,8.33
2018-09-27T23:34:24.174Z,8.73
2018-09-27T23:36:51.819Z,9.03
2018-09-27T23:39:19.486Z,8.50
2018-09-27T23:41:47.131Z,8.03
2018-09-27T23:44:14.865Z,8.80
2018-09-27T23:46:42.518Z,8.00
2018-09-27T23:49:10.196Z,8.40
2018-09-27T23:51:37.856Z,8.60
2018-09-27T23:54:05.709Z,9.20
2018-09-27T23:56:33.360Z,8.10
2018-09-27T23:59:01.044Z,8.27
